sensor_id;sensor_type;location;lat;lon;timestamp;P1;durP1;ratioP1;P2;durP2;ratioP2
14396;SDS011;50653;47.810;13.022;2023-06-19T00:00:30;13.17;;;12.17;;
14396;SDS011;50653;47.810;13.022;2023-06-19T00:02:56;14.27;;;12.70;;
14396;SDS011;50653;47.810;13.022;2023-06-19T00:05:21;13.80;;;11.97;;
14396;SDS011;50653;47.810;13.022;2023-06-19T00:07:48;12.87;;;11.87;;
14396;SDS011;50653;47.810;13.022;2023-06-19T00:10:14;14.07;;;12.83;;
14396;SDS011;50653;47.810;13.022;2023-06-19T00:12:40;12.33;;;11.23;;
14396;SDS011;50653;47.810;13.022;2023-06-19T00:15:06;12.13;;;11.23;;
14396;SDS011;50653;47.810;13.022;2023-06-19T00:17:34;13.00;;;11.70;;
14396;SDS011;50653;47.810;13.022;2023-06-19T00:20:02;19.87;;;11.97;;
14396;SDS011;50653;47.810;13.022;2023-06-19T00:22:29;13.37;;;12.27;;
14396;SDS011;50653;47.810;13.022;2023-06-19T00:24:54;13.77;;;12.37;;
14396;SDS011;50653;47.810;13.022;2023-06-19T00:27:20;21.63;;;12.30;;
14396;SDS011;50653;47.810;13.022;2023-06-19T00:29:46;12.00;;;10.83;;
14396;SDS011;50653;47.810;13.022;2023-06-19T00:32:12;12.43;;;11.43;;
14396;SDS011;50653;47.810;13.022;2023-06-19T00:34:37;13.10;;;12.00;;
14396;SDS011;50653;47.810;13.022;2023-06-19T00:37:03;14.07;;;12.97;;
14396;SDS011;50653;47.810;13.022;2023-06-19T00:39:29;13.53;;;12.33;;
14396;SDS011;50653;47.810;13.022;2023-06-19T00:41:56;12.80;;;11.67;;
14396;SDS011;50653;47.810;13.022;2023-06-19T00:44:21;12.07;;;10.90;;
14396;SDS011;50653;47.810;13.022;2023-06-19T00:46:48;12.67;;;11.63;;
14396;SDS011;50653;47.810;13.022;2023-06-19T00:49:20;12.50;;;11.50;;
14396;SDS011;50653;47.810;13.022;2023-06-19T00:51:46;13.10;;;11.90;;
14396;SDS011;50653;47.810;13.022;2023-06-19T00:54:13;12.37;;;11.27;;
14396;SDS011;50653;47.810;13.022;2023-06-19T00:56:39;12.37;;;11.30;;
14396;SDS011;50653;47.810;13.022;2023-06-19T00:59:08;13.63;;;12.40;;
14396;SDS011;50653;47.810;13.022;2023-06-19T01:01:42;12.57;;;11.27;;
14396;SDS011;50653;47.810;13.022;2023-06-19T01:04:08;13.10;;;11.90;;
14396;SDS011;50653;47.810;13.022;2023-06-19T01:09:16;13.10;;;12.03;;
14396;SDS011;50653;47.810;13.022;2023-06-19T01:11:44;14.10;;;12.90;;
14396;SDS011;50653;47.810;13.022;2023-06-19T01:14:18;12.47;;;11.47;;
14396;SDS011;50653;47.810;13.022;2023-06-19T01:16:50;13.30;;;12.10;;
14396;SDS011;50653;47.810;13.022;2023-06-19T01:19:20;13.10;;;12.00;;
14396;SDS011;50653;47.810;13.022;2023-06-19T01:21:46;14.03;;;12.60;;
14396;SDS011;50653;47.810;13.022;2023-06-19T01:24:13;11.60;;;10.60;;
14396;SDS011;50653;47.810;13.022;2023-06-19T01:26:39;11.87;;;10.97;;
14396;SDS011;50653;47.810;13.022;2023-06-19T01:29:05;12.90;;;11.60;;
14396;SDS011;50653;47.810;13.022;2023-06-19T01:31:33;12.97;;;11.93;;
14396;SDS011;50653;47.810;13.022;2023-06-19T01:34:08;12.10;;;11.17;;
14396;SDS011;50653;47.810;13.022;2023-06-19T01:36:36;12.53;;;11.33;;
14396;SDS011;50653;47.810;13.022;2023-06-19T01:39:02;12.77;;;11.57;;
14396;SDS011;50653;47.810;13.022;2023-06-19T01:41:30;12.43;;;11.53;;
14396;SDS011;50653;47.810;13.022;2023-06-19T01:43:57;13.60;;;12.50;;
14396;SDS011;50653;47.810;13.022;2023-06-19T01:46:23;13.33;;;12.13;;
14396;SDS011;50653;47.810;13.022;2023-06-19T01:48:49;12.17;;;11.20;;
14396;SDS011;50653;47.810;13.022;2023-06-19T01:51:15;12.50;;;10.30;;
14396;SDS011;50653;47.810;13.022;2023-06-19T01:53:41;13.87;;;12.50;;
14396;SDS011;50653;47.810;13.022;2023-06-19T01:56:08;14.10;;;12.90;;
14396;SDS011;50653;47.810;13.022;2023-06-19T01:58:34;11.83;;;10.90;;
14396;SDS011;50653;47.810;13.022;2023-06-19T02:01:00;12.57;;;11.67;;
14396;SDS011;50653;47.810;13.022;2023-06-19T02:03:26;13.23;;;12.10;;
14396;SDS011;50653;47.810;13.022;2023-06-19T02:05:51;13.20;;;12.00;;
14396;SDS011;50653;47.810;13.022;2023-06-19T02:08:19;13.60;;;12.40;;
14396;SDS011;50653;47.810;13.022;2023-06-19T02:10:44;12.93;;;11.70;;
14396;SDS011;50653;47.810;13.022;2023-06-19T02:13:10;13.63;;;12.03;;
14396;SDS011;50653;47.810;13.022;2023-06-19T02:15:36;12.93;;;11.60;;
14396;SDS011;50653;47.810;13.022;2023-06-19T02:18:01;13.70;;;12.40;;
14396;SDS011;50653;47.810;13.022;2023-06-19T02:20:28;13.23;;;12.33;;
14396;SDS011;50653;47.810;13.022;2023-06-19T02:22:55;14.63;;;12.77;;
14396;SDS011;50653;47.810;13.022;2023-06-19T02:25:21;16.80;;;13.43;;
14396;SDS011;50653;47.810;13.022;2023-06-19T02:27:47;14.80;;;13.30;;
14396;SDS011;50653;47.810;13.022;2023-06-19T02:30:12;13.27;;;11.63;;
14396;SDS011;50653;47.810;13.022;2023-06-19T02:32:38;17.10;;;12.70;;
14396;SDS011;50653;47.810;13.022;2023-06-19T02:35:05;13.03;;;11.80;;
14396;SDS011;50653;47.810;13.022;2023-06-19T02:37:34;13.03;;;11.53;;
14396;SDS011;50653;47.810;13.022;2023-06-19T02:40:01;14.07;;;12.50;;
14396;SDS011;50653;47.810;13.022;2023-06-19T02:42:31;12.67;;;10.07;;
14396;SDS011;50653;47.810;13.022;2023-06-19T02:44:57;14.30;;;11.40;;
14396;SDS011;50653;47.810;13.022;2023-06-19T02:47:28;13.63;;;12.50;;
14396;SDS011;50653;47.810;13.022;2023-06-19T02:49:56;12.97;;;11.20;;
14396;SDS011;50653;47.810;13.022;2023-06-19T02:52:22;12.53;;;11.53;;
14396;SDS011;50653;47.810;13.022;2023-06-19T02:54:48;11.77;;;10.77;;
14396;SDS011;50653;47.810;13.022;2023-06-19T02:57:13;14.30;;;12.90;;
14396;SDS011;50653;47.810;13.022;2023-06-19T02:59:41;13.47;;;12.37;;
14396;SDS011;50653;47.810;13.022;2023-06-19T03:02:07;12.50;;;11.20;;
14396;SDS011;50653;47.810;13.022;2023-06-19T03:04:33;13.53;;;12.33;;
14396;SDS011;50653;47.810;13.022;2023-06-19T03:06:58;12.03;;;11.03;;
14396;SDS011;50653;47.810;13.022;2023-06-19T03:09:24;10.77;;;10.03;;
14396;SDS011;50653;47.810;13.022;2023-06-19T03:11:50;11.37;;;10.30;;
14396;SDS011;50653;47.810;13.022;2023-06-19T03:14:16;13.50;;;11.00;;
14396;SDS011;50653;47.810;13.022;2023-06-19T03:16:42;11.97;;;10.93;;
14396;SDS011;50653;47.810;13.022;2023-06-19T03:19:07;12.13;;;10.90;;
14396;SDS011;50653;47.810;13.022;2023-06-19T03:21:34;12.67;;;11.40;;
14396;SDS011;50653;47.810;13.022;2023-06-19T03:24:00;17.73;;;11.53;;
14396;SDS011;50653;47.810;13.022;2023-06-19T03:26:26;13.10;;;11.80;;
14396;SDS011;50653;47.810;13.022;2023-06-19T03:28:53;12.60;;;11.23;;
14396;SDS011;50653;47.810;13.022;2023-06-19T03:31:20;12.90;;;11.60;;
14396;SDS011;50653;47.810;13.022;2023-06-19T03:33:46;12.10;;;11.20;;
14396;SDS011;50653;47.810;13.022;2023-06-19T03:36:12;11.73;;;10.77;;
14396;SDS011;50653;47.810;13.022;2023-06-19T03:38:51;12.90;;;11.60;;
14396;SDS011;50653;47.810;13.022;2023-06-19T03:41:21;13.27;;;12.20;;
14396;SDS011;50653;47.810;13.022;2023-06-19T03:43:47;11.13;;;10.13;;
14396;SDS011;50653;47.810;13.022;2023-06-19T03:46:13;11.50;;;10.57;;
14396;SDS011;50653;47.810;13.022;2023-06-19T03:48:39;11.87;;;10.93;;
14396;SDS011;50653;47.810;13.022;2023-06-19T03:51:04;13.20;;;11.80;;
14396;SDS011;50653;47.810;13.022;2023-06-19T03:53:30;11.47;;;10.53;;
14396;SDS011;50653;47.810;13.022;2023-06-19T03:55:55;14.00;;;12.60;;
14396;SDS011;50653;47.810;13.022;2023-06-19T03:58:21;12.37;;;10.80;;
14396;SDS011;50653;47.810;13.022;2023-06-19T04:00:47;12.10;;;10.90;;
14396;SDS011;50653;47.810;13.022;2023-06-19T04:03:13;14.10;;;11.53;;
14396;SDS011;50653;47.810;13.022;2023-06-19T04:05:38;12.23;;;11.10;;
14396;SDS011;50653;47.810;13.022;2023-06-19T04:08:06;11.70;;;10.60;;
14396;SDS011;50653;47.810;13.022;2023-06-19T04:10:32;11.70;;;10.60;;
14396;SDS011;50653;47.810;13.022;2023-06-19T04:12:59;12.00;;;10.97;;
14396;SDS011;50653;47.810;13.022;2023-06-19T04:15:24;16.23;;;12.10;;
14396;SDS011;50653;47.810;13.022;2023-06-19T04:17:50;11.03;;;10.13;;
14396;SDS011;50653;47.810;13.022;2023-06-19T04:20:16;12.43;;;11.33;;
14396;SDS011;50653;47.810;13.022;2023-06-19T04:22:41;12.33;;;10.97;;
14396;SDS011;50653;47.810;13.022;2023-06-19T04:25:08;12.37;;;11.30;;
14396;SDS011;50653;47.810;13.022;2023-06-19T04:27:35;11.67;;;10.67;;
14396;SDS011;50653;47.810;13.022;2023-06-19T04:30:01;13.43;;;10.70;;
14396;SDS011;50653;47.810;13.022;2023-06-19T04:32:29;12.57;;;11.47;;
14396;SDS011;50653;47.810;13.022;2023-06-19T04:34:55;11.60;;;10.60;;
14396;SDS011;50653;47.810;13.022;2023-06-19T04:37:21;11.27;;;10.30;;
14396;SDS011;50653;47.810;13.022;2023-06-19T04:39:46;12.07;;;10.97;;
14396;SDS011;50653;47.810;13.022;2023-06-19T04:42:16;11.07;;;10.00;;
14396;SDS011;50653;47.810;13.022;2023-06-19T04:44:48;15.87;;;11.27;;
14396;SDS011;50653;47.810;13.022;2023-06-19T04:47:16;12.27;;;11.17;;
14396;SDS011;50653;47.810;13.022;2023-06-19T04:49:43;13.30;;;10.10;;
14396;SDS011;50653;47.810;13.022;2023-06-19T04:52:08;11.03;;;10.17;;
14396;SDS011;50653;47.810;13.022;2023-06-19T04:54:34;11.67;;;10.70;;
14396;SDS011;50653;47.810;13.022;2023-06-19T04:57:00;12.73;;;11.63;;
14396;SDS011;50653;47.810;13.022;2023-06-19T04:59:26;11.73;;;10.83;;
14396;SDS011;50653;47.810;13.022;2023-06-19T05:01:52;11.10;;;10.07;;
14396;SDS011;50653;47.810;13.022;2023-06-19T05:04:20;10.60;;;9.70;;
14396;SDS011;50653;47.810;13.022;2023-06-19T05:06:47;13.40;;;12.20;;
14396;SDS011;50653;47.810;13.022;2023-06-19T05:09:13;11.73;;;10.60;;
14396;SDS011;50653;47.810;13.022;2023-06-19T05:11:39;11.63;;;10.60;;
14396;SDS011;50653;47.810;13.022;2023-06-19T05:14:05;13.43;;;12.33;;
14396;SDS011;50653;47.810;13.022;2023-06-19T05:16:31;12.03;;;10.90;;
14396;SDS011;50653;47.810;13.022;2023-06-19T05:18:58;12.63;;;11.47;;
14396;SDS011;50653;47.810;13.022;2023-06-19T05:21:24;12.30;;;11.07;;
14396;SDS011;50653;47.810;13.022;2023-06-19T05:23:49;12.40;;;11.20;;
14396;SDS011;50653;47.810;13.022;2023-06-19T05:26:19;12.00;;;10.90;;
14396;SDS011;50653;47.810;13.022;2023-06-19T05:28:45;12.00;;;10.90;;
14396;SDS011;50653;47.810;13.022;2023-06-19T05:31:11;19.90;;;10.53;;
14396;SDS011;50653;47.810;13.022;2023-06-19T05:33:37;10.70;;;9.80;;
14396;SDS011;50653;47.810;13.022;2023-06-19T05:36:02;10.47;;;9.67;;
14396;SDS011;50653;47.810;13.022;2023-06-19T05:38:28;12.00;;;11.00;;
14396;SDS011;50653;47.810;13.022;2023-06-19T05:40:55;11.17;;;10.10;;
14396;SDS011;50653;47.810;13.022;2023-06-19T05:43:21;10.53;;;9.60;;
14396;SDS011;50653;47.810;13.022;2023-06-19T05:45:49;11.10;;;10.17;;
14396;SDS011;50653;47.810;13.022;2023-06-19T05:48:15;11.27;;;10.10;;
14396;SDS011;50653;47.810;13.022;2023-06-19T05:50:41;11.83;;;10.70;;
14396;SDS011;50653;47.810;13.022;2023-06-19T05:53:06;10.03;;;9.20;;
14396;SDS011;50653;47.810;13.022;2023-06-19T05:55:32;10.23;;;9.20;;
14396;SDS011;50653;47.810;13.022;2023-06-19T05:57:58;12.03;;;10.63;;
14396;SDS011;50653;47.810;13.022;2023-06-19T06:00:23;12.83;;;10.07;;
14396;SDS011;50653;47.810;13.022;2023-06-19T06:02:49;11.20;;;10.30;;
14396;SDS011;50653;47.810;13.022;2023-06-19T06:05:16;11.97;;;10.23;;
14396;SDS011;50653;47.810;13.022;2023-06-19T06:07:44;11.00;;;10.10;;
14396;SDS011;50653;47.810;13.022;2023-06-19T06:10:10;11.37;;;10.43;;
14396;SDS011;50653;47.810;13.022;2023-06-19T06:12:36;11.50;;;10.40;;
14396;SDS011;50653;47.810;13.022;2023-06-19T06:15:02;15.17;;;10.57;;
14396;SDS011;50653;47.810;13.022;2023-06-19T06:17:29;16.33;;;12.37;;
14396;SDS011;50653;47.810;13.022;2023-06-19T06:19:54;12.40;;;11.20;;
14396;SDS011;50653;47.810;13.022;2023-06-19T06:22:20;10.87;;;9.87;;
14396;SDS011;50653;47.810;13.022;2023-06-19T06:24:46;14.80;;;12.33;;
14396;SDS011;50653;47.810;13.022;2023-06-19T06:27:12;17.90;;;10.80;;
14396;SDS011;50653;47.810;13.022;2023-06-19T06:29:38;12.87;;;11.47;;
14396;SDS011;50653;47.810;13.022;2023-06-19T06:32:04;11.50;;;10.50;;
14396;SDS011;50653;47.810;13.022;2023-06-19T06:34:32;10.93;;;9.93;;
14396;SDS011;50653;47.810;13.022;2023-06-19T06:37:01;11.97;;;10.87;;
14396;SDS011;50653;47.810;13.022;2023-06-19T06:39:27;12.17;;;10.97;;
14396;SDS011;50653;47.810;13.022;2023-06-19T06:41:53;11.73;;;10.77;;
14396;SDS011;50653;47.810;13.022;2023-06-19T06:44:18;11.43;;;10.53;;
14396;SDS011;50653;47.810;13.022;2023-06-19T06:46:44;11.30;;;10.30;;
14396;SDS011;50653;47.810;13.022;2023-06-19T06:49:10;11.33;;;10.43;;
14396;SDS011;50653;47.810;13.022;2023-06-19T06:51:36;11.33;;;10.23;;
14396;SDS011;50653;47.810;13.022;2023-06-19T06:54:02;14.67;;;11.37;;
14396;SDS011;50653;47.810;13.022;2023-06-19T06:56:27;12.93;;;11.03;;
14396;SDS011;50653;47.810;13.022;2023-06-19T06:58:53;12.07;;;10.87;;
14396;SDS011;50653;47.810;13.022;2023-06-19T07:01:19;11.73;;;10.60;;
14396;SDS011;50653;47.810;13.022;2023-06-19T07:03:44;12.87;;;11.70;;
14396;SDS011;50653;47.810;13.022;2023-06-19T07:06:10;11.63;;;10.73;;
14396;SDS011;50653;47.810;13.022;2023-06-19T07:08:36;12.80;;;11.70;;
14396;SDS011;50653;47.810;13.022;2023-06-19T07:11:02;11.43;;;10.37;;
14396;SDS011;50653;47.810;13.022;2023-06-19T07:13:28;12.57;;;11.30;;
14396;SDS011;50653;47.810;13.022;2023-06-19T07:15:53;14.37;;;12.97;;
14396;SDS011;50653;47.810;13.022;2023-06-19T07:18:19;19.60;;;10.80;;
14396;SDS011;50653;47.810;13.022;2023-06-19T07:20:45;12.87;;;11.60;;
14396;SDS011;50653;47.810;13.022;2023-06-19T07:23:10;11.23;;;10.43;;
14396;SDS011;50653;47.810;13.022;2023-06-19T07:25:36;12.20;;;11.20;;
14396;SDS011;50653;47.810;13.022;2023-06-19T07:28:02;12.07;;;10.97;;
14396;SDS011;50653;47.810;13.022;2023-06-19T07:30:29;14.40;;;12.50;;
14396;SDS011;50653;47.810;13.022;2023-06-19T07:32:55;15.40;;;12.70;;
14396;SDS011;50653;47.810;13.022;2023-06-19T07:35:21;15.90;;;10.93;;
14396;SDS011;50653;47.810;13.022;2023-06-19T07:37:47;13.50;;;12.40;;
14396;SDS011;50653;47.810;13.022;2023-06-19T07:40:12;14.83;;;12.60;;
14396;SDS011;50653;47.810;13.022;2023-06-19T07:42:38;16.37;;;12.87;;
14396;SDS011;50653;47.810;13.022;2023-06-19T07:45:04;13.80;;;12.60;;
14396;SDS011;50653;47.810;13.022;2023-06-19T07:47:30;15.90;;;14.33;;
14396;SDS011;50653;47.810;13.022;2023-06-19T07:49:56;18.27;;;12.63;;
14396;SDS011;50653;47.810;13.022;2023-06-19T07:52:21;12.40;;;11.17;;
14396;SDS011;50653;47.810;13.022;2023-06-19T07:54:56;13.17;;;11.70;;
14396;SDS011;50653;47.810;13.022;2023-06-19T07:57:23;12.30;;;11.30;;
14396;SDS011;50653;47.810;13.022;2023-06-19T07:59:50;13.10;;;11.90;;
14396;SDS011;50653;47.810;13.022;2023-06-19T08:02:17;25.67;;;13.73;;
14396;SDS011;50653;47.810;13.022;2023-06-19T08:04:43;15.13;;;11.93;;
14396;SDS011;50653;47.810;13.022;2023-06-19T08:07:08;16.80;;;13.30;;
14396;SDS011;50653;47.810;13.022;2023-06-19T08:09:34;14.23;;;11.47;;
14396;SDS011;50653;47.810;13.022;2023-06-19T08:12:00;13.73;;;12.53;;
14396;SDS011;50653;47.810;13.022;2023-06-19T08:14:26;12.70;;;11.60;;
14396;SDS011;50653;47.810;13.022;2023-06-19T08:16:52;20.83;;;13.17;;
14396;SDS011;50653;47.810;13.022;2023-06-19T08:19:17;12.87;;;11.77;;
14396;SDS011;50653;47.810;13.022;2023-06-19T08:21:43;13.13;;;11.90;;
14396;SDS011;50653;47.810;13.022;2023-06-19T08:24:09;14.83;;;11.40;;
14396;SDS011;50653;47.810;13.022;2023-06-19T08:26:34;16.20;;;11.80;;
14396;SDS011;50653;47.810;13.022;2023-06-19T08:29:00;15.10;;;13.60;;
14396;SDS011;50653;47.810;13.022;2023-06-19T08:31:25;14.67;;;13.20;;
14396;SDS011;50653;47.810;13.022;2023-06-19T08:33:55;19.90;;;13.30;;
14396;SDS011;50653;47.810;13.022;2023-06-19T08:36:23;14.80;;;12.00;;
14396;SDS011;50653;47.810;13.022;2023-06-19T08:38:49;12.70;;;11.57;;
14396;SDS011;50653;47.810;13.022;2023-06-19T08:41:15;12.97;;;11.80;;
14396;SDS011;50653;47.810;13.022;2023-06-19T08:43:44;13.20;;;12.07;;
14396;SDS011;50653;47.810;13.022;2023-06-19T08:46:11;14.10;;;12.60;;
14396;SDS011;50653;47.810;13.022;2023-06-19T08:48:39;12.53;;;11.47;;
14396;SDS011;50653;47.810;13.022;2023-06-19T08:51:06;12.27;;;10.97;;
14396;SDS011;50653;47.810;13.022;2023-06-19T08:53:36;17.33;;;15.80;;
14396;SDS011;50653;47.810;13.022;2023-06-19T08:56:08;13.40;;;12.03;;
14396;SDS011;50653;47.810;13.022;2023-06-19T08:58:34;13.13;;;12.00;;
14396;SDS011;50653;47.810;13.022;2023-06-19T09:01:00;12.30;;;11.17;;
14396;SDS011;50653;47.810;13.022;2023-06-19T09:03:25;13.20;;;12.00;;
14396;SDS011;50653;47.810;13.022;2023-06-19T09:05:51;14.17;;;12.67;;
14396;SDS011;50653;47.810;13.022;2023-06-19T09:08:17;17.93;;;13.80;;
14396;SDS011;50653;47.810;13.022;2023-06-19T09:10:55;13.97;;;12.77;;
14396;SDS011;50653;47.810;13.022;2023-06-19T09:13:24;13.30;;;12.10;;
14396;SDS011;50653;47.810;13.022;2023-06-19T09:16:02;13.50;;;12.30;;
14396;SDS011;50653;47.810;13.022;2023-06-19T09:18:30;12.83;;;11.53;;
14396;SDS011;50653;47.810;13.022;2023-06-19T09:20:56;13.80;;;12.50;;
14396;SDS011;50653;47.810;13.022;2023-06-19T09:23:23;14.87;;;13.40;;
14396;SDS011;50653;47.810;13.022;2023-06-19T09:25:53;14.07;;;12.83;;
14396;SDS011;50653;47.810;13.022;2023-06-19T09:28:21;16.50;;;12.93;;
14396;SDS011;50653;47.810;13.022;2023-06-19T09:30:58;16.80;;;14.20;;
14396;SDS011;50653;47.810;13.022;2023-06-19T09:33:25;14.83;;;12.80;;
14396;SDS011;50653;47.810;13.022;2023-06-19T09:35:52;20.00;;;14.07;;
14396;SDS011;50653;47.810;13.022;2023-06-19T09:38:21;15.40;;;13.03;;
14396;SDS011;50653;47.810;13.022;2023-06-19T09:40:49;16.30;;;14.20;;
14396;SDS011;50653;47.810;13.022;2023-06-19T09:43:18;14.57;;;13.27;;
14396;SDS011;50653;47.810;13.022;2023-06-19T09:45:50;12.80;;;11.80;;
14396;SDS011;50653;47.810;13.022;2023-06-19T09:48:19;12.23;;;11.43;;
14396;SDS011;50653;47.810;13.022;2023-06-19T09:50:51;14.63;;;13.40;;
14396;SDS011;50653;47.810;13.022;2023-06-19T09:53:20;15.90;;;14.47;;
14396;SDS011;50653;47.810;13.022;2023-06-19T09:55:49;13.20;;;12.03;;
14396;SDS011;50653;47.810;13.022;2023-06-19T09:58:18;15.77;;;14.30;;
14396;SDS011;50653;47.810;13.022;2023-06-19T10:00:45;15.20;;;13.80;;
14396;SDS011;50653;47.810;13.022;2023-06-19T10:03:12;17.33;;;14.13;;
14396;SDS011;50653;47.810;13.022;2023-06-19T10:05:39;12.60;;;11.67;;
14396;SDS011;50653;47.810;13.022;2023-06-19T10:08:08;15.30;;;13.90;;
14396;SDS011;50653;47.810;13.022;2023-06-19T10:10:33;13.50;;;12.30;;
14396;SDS011;50653;47.810;13.022;2023-06-19T10:13:21;13.80;;;12.30;;
14396;SDS011;50653;47.810;13.022;2023-06-19T10:15:46;14.27;;;11.17;;
14396;SDS011;50653;47.810;13.022;2023-06-19T10:18:13;14.17;;;12.87;;
14396;SDS011;50653;47.810;13.022;2023-06-19T10:20:43;12.57;;;11.47;;
14396;SDS011;50653;47.810;13.022;2023-06-19T10:23:11;13.27;;;12.20;;
14396;SDS011;50653;47.810;13.022;2023-06-19T10:25:43;14.90;;;13.37;;
14396;SDS011;50653;47.810;13.022;2023-06-19T10:33:29;14.23;;;13.00;;
14396;SDS011;50653;47.810;13.022;2023-06-19T10:36:20;15.70;;;12.60;;
14396;SDS011;50653;47.810;13.022;2023-06-19T10:38:51;14.17;;;12.70;;
14396;SDS011;50653;47.810;13.022;2023-06-19T10:41:17;12.10;;;11.20;;
14396;SDS011;50653;47.810;13.022;2023-06-19T10:43:58;10.43;;;9.73;;
14396;SDS011;50653;47.810;13.022;2023-06-19T10:46:29;12.43;;;11.40;;
14396;SDS011;50653;47.810;13.022;2023-06-19T10:48:57;11.23;;;10.33;;
14396;SDS011;50653;47.810;13.022;2023-06-19T10:51:29;12.87;;;11.70;;
14396;SDS011;50653;47.810;13.022;2023-06-19T10:53:55;11.60;;;10.73;;
14396;SDS011;50653;47.810;13.022;2023-06-19T10:56:22;10.60;;;9.50;;
14396;SDS011;50653;47.810;13.022;2023-06-19T10:58:56;10.30;;;9.70;;
14396;SDS011;50653;47.810;13.022;2023-06-19T11:01:36;11.40;;;10.50;;
14396;SDS011;50653;47.810;13.022;2023-06-19T11:04:10;11.10;;;10.23;;
14396;SDS011;50653;47.810;13.022;2023-06-19T11:06:37;10.97;;;10.07;;
14396;SDS011;50653;47.810;13.022;2023-06-19T11:09:05;8.87;;;8.27;;
14396;SDS011;50653;47.810;13.022;2023-06-19T11:11:42;9.10;;;8.50;;
14396;SDS011;50653;47.810;13.022;2023-06-19T11:14:09;10.17;;;9.47;;
14396;SDS011;50653;47.810;13.022;2023-06-19T11:16:38;11.03;;;9.90;;
14396;SDS011;50653;47.810;13.022;2023-06-19T11:19:06;9.60;;;8.60;;
14396;SDS011;50653;47.810;13.022;2023-06-19T11:21:40;9.67;;;9.07;;
14396;SDS011;50653;47.810;13.022;2023-06-19T11:24:13;10.27;;;9.57;;
14396;SDS011;50653;47.810;13.022;2023-06-19T11:26:40;9.80;;;8.90;;
14396;SDS011;50653;47.810;13.022;2023-06-19T11:29:25;9.00;;;8.30;;
14396;SDS011;50653;47.810;13.022;2023-06-19T11:31:53;8.97;;;8.27;;
14396;SDS011;50653;47.810;13.022;2023-06-19T11:34:34;11.30;;;10.40;;
14396;SDS011;50653;47.810;13.022;2023-06-19T11:37:02;10.03;;;9.43;;
14396;SDS011;50653;47.810;13.022;2023-06-19T11:39:36;11.20;;;10.40;;
14396;SDS011;50653;47.810;13.022;2023-06-19T11:42:02;10.70;;;9.90;;
14396;SDS011;50653;47.810;13.022;2023-06-19T11:44:28;10.60;;;9.90;;
14396;SDS011;50653;47.810;13.022;2023-06-19T11:46:57;12.10;;;11.03;;
14396;SDS011;50653;47.810;13.022;2023-06-19T11:49:27;10.53;;;9.90;;
14396;SDS011;50653;47.810;13.022;2023-06-19T11:51:57;10.83;;;10.13;;
14396;SDS011;50653;47.810;13.022;2023-06-19T11:54:23;11.17;;;10.17;;
14396;SDS011;50653;47.810;13.022;2023-06-19T11:56:49;11.70;;;10.70;;
14396;SDS011;50653;47.810;13.022;2023-06-19T11:59:14;12.47;;;11.33;;
14396;SDS011;50653;47.810;13.022;2023-06-19T12:01:40;12.47;;;11.47;;
14396;SDS011;50653;47.810;13.022;2023-06-19T12:04:06;11.87;;;9.67;;
14396;SDS011;50653;47.810;13.022;2023-06-19T12:06:32;11.57;;;10.57;;
14396;SDS011;50653;47.810;13.022;2023-06-19T12:09:00;11.47;;;10.53;;
14396;SDS011;50653;47.810;13.022;2023-06-19T12:11:26;10.13;;;9.50;;
14396;SDS011;50653;47.810;13.022;2023-06-19T12:13:51;10.40;;;9.60;;
14396;SDS011;50653;47.810;13.022;2023-06-19T12:16:18;10.30;;;9.50;;
14396;SDS011;50653;47.810;13.022;2023-06-19T12:18:44;10.20;;;9.50;;
14396;SDS011;50653;47.810;13.022;2023-06-19T12:21:09;10.63;;;9.90;;
14396;SDS011;50653;47.810;13.022;2023-06-19T12:23:35;10.00;;;9.33;;
14396;SDS011;50653;47.810;13.022;2023-06-19T12:26:01;10.30;;;9.30;;
14396;SDS011;50653;47.810;13.022;2023-06-19T12:28:26;9.20;;;8.50;;
14396;SDS011;50653;47.810;13.022;2023-06-19T12:30:52;8.97;;;8.47;;
14396;SDS011;50653;47.810;13.022;2023-06-19T12:33:19;10.67;;;9.97;;
14396;SDS011;50653;47.810;13.022;2023-06-19T12:35:46;10.60;;;10.00;;
14396;SDS011;50653;47.810;13.022;2023-06-19T12:38:12;10.97;;;10.10;;
14396;SDS011;50653;47.810;13.022;2023-06-19T12:40:38;9.23;;;8.43;;
14396;SDS011;50653;47.810;13.022;2023-06-19T12:43:03;11.63;;;9.73;;
14396;SDS011;50653;47.810;13.022;2023-06-19T12:45:29;10.93;;;10.00;;
14396;SDS011;50653;47.810;13.022;2023-06-19T12:47:55;10.43;;;9.63;;
14396;SDS011;50653;47.810;13.022;2023-06-19T12:50:21;9.90;;;9.00;;
14396;SDS011;50653;47.810;13.022;2023-06-19T12:52:47;11.10;;;10.30;;
14396;SDS011;50653;47.810;13.022;2023-06-19T12:55:13;10.60;;;9.90;;
14396;SDS011;50653;47.810;13.022;2023-06-19T12:57:38;10.30;;;9.63;;
14396;SDS011;50653;47.810;13.022;2023-06-19T13:00:06;11.50;;;10.70;;
14396;SDS011;50653;47.810;13.022;2023-06-19T13:02:35;11.93;;;10.87;;
14396;SDS011;50653;47.810;13.022;2023-06-19T13:05:01;10.90;;;10.10;;
14396;SDS011;50653;47.810;13.022;2023-06-19T13:07:26;11.97;;;10.83;;
14396;SDS011;50653;47.810;13.022;2023-06-19T13:09:52;9.90;;;9.30;;
14396;SDS011;50653;47.810;13.022;2023-06-19T13:12:18;10.83;;;10.13;;
14396;SDS011;50653;47.810;13.022;2023-06-19T13:14:44;11.70;;;10.70;;
14396;SDS011;50653;47.810;13.022;2023-06-19T13:17:09;10.73;;;10.10;;
14396;SDS011;50653;47.810;13.022;2023-06-19T13:19:35;10.77;;;10.07;;
14396;SDS011;50653;47.810;13.022;2023-06-19T13:22:00;12.70;;;10.33;;
14396;SDS011;50653;47.810;13.022;2023-06-19T13:24:26;11.33;;;10.43;;
14396;SDS011;50653;47.810;13.022;2023-06-19T13:26:52;12.63;;;11.83;;
14396;SDS011;50653;47.810;13.022;2023-06-19T13:29:19;11.10;;;10.30;;
14396;SDS011;50653;47.810;13.022;2023-06-19T13:31:44;10.60;;;9.77;;
14396;SDS011;50653;47.810;13.022;2023-06-19T13:34:10;11.17;;;10.43;;
14396;SDS011;50653;47.810;13.022;2023-06-19T13:36:36;10.60;;;9.90;;
14396;SDS011;50653;47.810;13.022;2023-06-19T13:39:02;12.33;;;11.53;;
14396;SDS011;50653;47.810;13.022;2023-06-19T13:41:28;10.90;;;10.10;;
14396;SDS011;50653;47.810;13.022;2023-06-19T13:43:56;11.70;;;10.80;;
14396;SDS011;50653;47.810;13.022;2023-06-19T13:46:22;12.80;;;10.90;;
14396;SDS011;50653;47.810;13.022;2023-06-19T13:48:47;12.47;;;11.37;;
14396;SDS011;50653;47.810;13.022;2023-06-19T13:51:16;11.50;;;10.70;;
14396;SDS011;50653;47.810;13.022;2023-06-19T13:53:42;11.40;;;10.70;;
14396;SDS011;50653;47.810;13.022;2023-06-19T13:56:09;12.50;;;11.67;;
14396;SDS011;50653;47.810;13.022;2023-06-19T13:58:35;10.87;;;10.23;;
14396;SDS011;50653;47.810;13.022;2023-06-19T14:01:01;10.67;;;9.87;;
14396;SDS011;50653;47.810;13.022;2023-06-19T14:03:26;12.00;;;10.90;;
14396;SDS011;50653;47.810;13.022;2023-06-19T14:05:52;10.00;;;9.20;;
14396;SDS011;50653;47.810;13.022;2023-06-19T14:08:17;11.27;;;10.50;;
14396;SDS011;50653;47.810;13.022;2023-06-19T14:10:43;11.47;;;10.67;;
14396;SDS011;50653;47.810;13.022;2023-06-19T14:13:09;12.60;;;11.77;;
14396;SDS011;50653;47.810;13.022;2023-06-19T14:15:34;11.30;;;10.50;;
14396;SDS011;50653;47.810;13.022;2023-06-19T14:18:00;11.00;;;10.20;;